Historique des mesures à Cassis (13260), France
Quotidien Résumé Mars 27, 2017 Unités:  Métrique    US   Métrique/US
« Précédent (Jour)
Suivant (Jour) »
Quotidien Hebdomadaire Mensuel Annuel Période au choix
  Maximum: Minimum: Moyenne:
Température: TemperatureC °C 11.2 °C 14.1 °C
Point de rosée: DewpointC °C 7.6 °C 8.9 °C
Humidité: Humidity % 55 % 68 %
Vitesse du vent: 0 km/h 0 km/h 3.5 km/h
Rafales: 0 km/h - -
Vent:- - SE
Pression: PressurehPa hPa 1016.1 hPa -
Précipitations: 0.0 mm    
Historical Graphs
 
 
Mesures pour : Mars 27, 2017
Heure Temperature Point de rosée Pression Vent Vitesse du vent Rafales Humidité Pluie (par heure) Conditions
TemperatureC °C DewpointC °C PressurehPa hPa Calm     Humidity % HourlyPrecipMM mm SoftwareType W/m2
00:11 11.9 °C 8.4 °C 1016.1 hPa NNE 4.7 km/h 4.7 km/h 79 % 0.0 mm open2300-1.11 W/m2
01:11 11.8 °C 8.3 °C 1016.5 hPa Calm   2.3 km/h 79 % 0.0 mm open2300-1.11 W/m2
02:11 11.8 °C 8.5 °C 1016.8 hPa Calm     80 % 0.0 mm open2300-1.11 W/m2
03:11 11.2 °C 8.1 °C 1016.8 hPa Calm   4.2 km/h 81 % 0.0 mm open2300-1.11 W/m2
04:11 11.5 °C 8.2 °C 1017.2 hPa Calm     80 % 0.0 mm open2300-1.11 W/m2
05:11 11.8 °C 8.1 °C 1016.5 hPa Calm   6.4 km/h 78 % 0.0 mm open2300-1.11 W/m2
06:11 12.2 °C 8.5 °C 1016.8 hPa Calm     78 % 0.0 mm open2300-1.11 W/m2
07:11 12.3 °C 8.0 °C 1016.8 hPa SE 4.2 km/h 4.2 km/h 75 % 0.0 mm open2300-1.11 W/m2
08:11 12.6 °C 7.9 °C 1017.8 hPa SE 14 km/h 14 km/h 73 % 0.0 mm open2300-1.11 W/m2
09:11 13.5 °C 8.3 °C 1017.8 hPa SSE 5.6 km/h 15 km/h 71 % 0.0 mm open2300-1.11 W/m2
10:11 14.4 °C 9.0 °C 1018.5 hPa SE 4.7 km/h 10.3 km/h 70 % 0.0 mm open2300-1.11 W/m2
11:11 15.8 °C 10.4 °C 1018.8 hPa WSW 5.1 km/h 5.1 km/h 70 % 0.0 mm open2300-1.11 W/m2
12:11 17.9 °C 11.7 °C 1019.5 hPa NE 4.7 km/h 4.7 km/h 67 % 0.0 mm open2300-1.11 W/m2
13:11 18.8 °C 11.8 °C 1020.2 hPa SSE 6.4 km/h 9.8 km/h 64 % 0.0 mm open2300-1.11 W/m2
14:11 18.4 °C 11.9 °C 1020.2 hPa Calm   8.9 km/h 66 % 0.0 mm open2300-1.11 W/m2
15:11 18.3 °C 11.8 °C 1019.9 hPa West 22.5 km/h 22.5 km/h 66 % 0.0 mm open2300-1.11 W/m2
16:11 18.1 °C 10.7 °C 1019.2 hPa SE 2.3 km/h 9.3 km/h 62 % 0.0 mm open2300-1.11 W/m2
17:11 18.4 °C 9.9 °C 1018.8 hPa NE 4.7 km/h 5.6 km/h 58 % 0.0 mm open2300-1.11 W/m2
18:11 18.1 °C 8.8 °C 1018.2 hPa Calm   9.8 km/h 55 % 0.0 mm open2300-1.11 W/m2
19:11 17.1 °C 9.7 °C 1018.5 hPa WNW 6.4 km/h 6.4 km/h 62 % 0.0 mm open2300-1.11 W/m2
20:11 15.6 °C 9.3 °C 1018.8 hPa Calm   4.2 km/h 66 % 0.0 mm open2300-1.11 W/m2
21:11 13.9 °C 8.5 °C 1019.5 hPa North 4.2 km/h 8 km/h 70 % 0.0 mm open2300-1.11 W/m2
22:11 13.2 °C 8.1 °C 1020.2 hPa Calm   2.9 km/h 71 % 0.0 mm open2300-1.11 W/m2
23:11 12.7 °C 7.6 °C 1020.2 hPa Calm   1.8 km/h 71 % 0.0 mm open2300-1.11 W/m2
Observations météo à CASSIS
WU-History script by Weather Underground - 1 mb